Whitney, Canada
Current Conditions -  °F | °C
As of 5:00 AM on Tuesday 27 Jan 2015 (Local Time) from CYWA Reporting Station
Clear Clear  
Wind Chill: -19°   Ceiling: Unl
Heat Index: -8°   Visibility: 9mi
Dew Point: -17°   Wind: 5mph
Humidity: 65%   Direction: 280°W
Pressure: 30.14"   Gusts: NA
Location:  45.5°N, 78.23°W
Report Text: CYWA 271000Z AUTO 28004KT 9SM CLR M22/M27 A3014 RMK SLP220
Loading
Personal Weather Stations






























Interactive Weather Map New forecast layout! Learn more

10-Day Weather Forecast

Advertisements
Track Severe Weather on mobile